sensor_id;sensor_type;location;lat;lon;timestamp;P1;durP1;ratioP1;P2;durP2;ratioP2
48911;SDS011;34722;52.108;5.044;2022-12-07T00:01:08;16.13;;;8.80;;
48911;SDS011;34722;52.108;5.044;2022-12-07T00:03:35;17.02;;;8.20;;
48911;SDS011;34722;52.108;5.044;2022-12-07T00:06:02;18.00;;;8.30;;
48911;SDS011;34722;52.108;5.044;2022-12-07T00:08:30;18.38;;;9.00;;
48911;SDS011;34722;52.108;5.044;2022-12-07T00:11:00;20.30;;;9.02;;
48911;SDS011;34722;52.108;5.044;2022-12-07T00:15:55;24.50;;;8.05;;
48911;SDS011;34722;52.108;5.044;2022-12-07T00:18:24;14.32;;;7.57;;
48911;SDS011;34722;52.108;5.044;2022-12-07T00:20:50;15.52;;;8.82;;
48911;SDS011;34722;52.108;5.044;2022-12-07T00:23:15;14.85;;;7.65;;
48911;SDS011;34722;52.108;5.044;2022-12-07T00:25:41;20.33;;;7.88;;
48911;SDS011;34722;52.108;5.044;2022-12-07T00:28:07;14.57;;;8.15;;
48911;SDS011;34722;52.108;5.044;2022-12-07T00:30:34;19.00;;;8.25;;
48911;SDS011;34722;52.108;5.044;2022-12-07T00:33:00;15.77;;;7.90;;
48911;SDS011;34722;52.108;5.044;2022-12-07T00:35:25;23.95;;;8.27;;
48911;SDS011;34722;52.108;5.044;2022-12-07T00:37:51;23.17;;;8.10;;
48911;SDS011;34722;52.108;5.044;2022-12-07T00:40:16;18.42;;;7.90;;
48911;SDS011;34722;52.108;5.044;2022-12-07T00:42:42;22.40;;;8.38;;
48911;SDS011;34722;52.108;5.044;2022-12-07T00:45:08;18.08;;;8.05;;
48911;SDS011;34722;52.108;5.044;2022-12-07T00:47:34;16.75;;;8.02;;
48911;SDS011;34722;52.108;5.044;2022-12-07T00:49:59;16.40;;;8.35;;
48911;SDS011;34722;52.108;5.044;2022-12-07T00:52:25;23.70;;;9.82;;
48911;SDS011;34722;52.108;5.044;2022-12-07T00:54:50;21.23;;;8.90;;
48911;SDS011;34722;52.108;5.044;2022-12-07T00:57:16;23.17;;;9.65;;
48911;SDS011;34722;52.108;5.044;2022-12-07T00:59:42;22.45;;;9.10;;
48911;SDS011;34722;52.108;5.044;2022-12-07T01:02:07;20.00;;;9.80;;
48911;SDS011;34722;52.108;5.044;2022-12-07T01:04:33;24.55;;;9.73;;
48911;SDS011;34722;52.108;5.044;2022-12-07T01:06:59;24.50;;;10.13;;
48911;SDS011;34722;52.108;5.044;2022-12-07T01:09:25;19.88;;;10.23;;
48911;SDS011;34722;52.108;5.044;2022-12-07T01:11:50;18.95;;;9.20;;
48911;SDS011;34722;52.108;5.044;2022-12-07T01:14:18;22.77;;;9.43;;
48911;SDS011;34722;52.108;5.044;2022-12-07T01:16:43;25.92;;;10.15;;
48911;SDS011;34722;52.108;5.044;2022-12-07T01:19:09;27.20;;;9.43;;
48911;SDS011;34722;52.108;5.044;2022-12-07T01:21:35;20.38;;;9.98;;
48911;SDS011;34722;52.108;5.044;2022-12-07T01:24:03;22.83;;;8.35;;
48911;SDS011;34722;52.108;5.044;2022-12-07T01:26:30;17.73;;;8.45;;
48911;SDS011;34722;52.108;5.044;2022-12-07T01:28:56;23.52;;;8.98;;
48911;SDS011;34722;52.108;5.044;2022-12-07T01:31:24;19.20;;;8.77;;
48911;SDS011;34722;52.108;5.044;2022-12-07T01:33:51;19.42;;;8.35;;
48911;SDS011;34722;52.108;5.044;2022-12-07T01:36:26;16.80;;;8.38;;
48911;SDS011;34722;52.108;5.044;2022-12-07T01:38:55;12.88;;;7.65;;
48911;SDS011;34722;52.108;5.044;2022-12-07T01:41:23;18.95;;;7.93;;
48911;SDS011;34722;52.108;5.044;2022-12-07T01:44:11;23.63;;;9.07;;
48911;SDS011;34722;52.108;5.044;2022-12-07T01:46:37;16.85;;;6.88;;
48911;SDS011;34722;52.108;5.044;2022-12-07T01:49:06;19.30;;;7.57;;
48911;SDS011;34722;52.108;5.044;2022-12-07T01:51:37;16.08;;;7.10;;
48911;SDS011;34722;52.108;5.044;2022-12-07T01:54:03;15.32;;;6.93;;
48911;SDS011;34722;52.108;5.044;2022-12-07T01:56:29;18.60;;;7.82;;
48911;SDS011;34722;52.108;5.044;2022-12-07T01:58:55;28.15;;;6.90;;
48911;SDS011;34722;52.108;5.044;2022-12-07T02:01:24;19.45;;;5.75;;
48911;SDS011;34722;52.108;5.044;2022-12-07T02:03:50;12.18;;;4.72;;
48911;SDS011;34722;52.108;5.044;2022-12-07T02:06:17;14.02;;;4.90;;
48911;SDS011;34722;52.108;5.044;2022-12-07T02:08:45;14.95;;;5.40;;
48911;SDS011;34722;52.108;5.044;2022-12-07T02:11:11;19.15;;;5.22;;
48911;SDS011;34722;52.108;5.044;2022-12-07T02:13:38;13.05;;;4.50;;
48911;SDS011;34722;52.108;5.044;2022-12-07T02:16:11;10.27;;;3.75;;
48911;SDS011;34722;52.108;5.044;2022-12-07T02:21:11;15.10;;;4.55;;
48911;SDS011;34722;52.108;5.044;2022-12-07T02:29:54;9.68;;;3.38;;
48911;SDS011;34722;52.108;5.044;2022-12-07T02:32:28;14.95;;;3.40;;
48911;SDS011;34722;52.108;5.044;2022-12-07T02:35:06;16.60;;;4.32;;
48911;SDS011;34722;52.108;5.044;2022-12-07T02:38:25;14.15;;;3.45;;
48911;SDS011;34722;52.108;5.044;2022-12-07T02:40:55;18.50;;;3.50;;
48911;SDS011;34722;52.108;5.044;2022-12-07T02:43:34;17.60;;;3.88;;
48911;SDS011;34722;52.108;5.044;2022-12-07T02:46:08;8.75;;;2.88;;
48911;SDS011;34722;52.108;5.044;2022-12-07T02:48:37;9.25;;;3.67;;
48911;SDS011;34722;52.108;5.044;2022-12-07T02:51:04;9.65;;;3.80;;
48911;SDS011;34722;52.108;5.044;2022-12-07T02:53:38;12.68;;;3.63;;
48911;SDS011;34722;52.108;5.044;2022-12-07T02:56:28;9.45;;;3.05;;
48911;SDS011;34722;52.108;5.044;2022-12-07T03:01:46;10.73;;;3.38;;
48911;SDS011;34722;52.108;5.044;2022-12-07T03:09:52;17.70;;;3.55;;
48911;SDS011;34722;52.108;5.044;2022-12-07T03:12:47;11.77;;;2.90;;
48911;SDS011;34722;52.108;5.044;2022-12-07T03:15:20;10.52;;;3.50;;
48911;SDS011;34722;52.108;5.044;2022-12-07T03:17:51;17.92;;;3.45;;
48911;SDS011;34722;52.108;5.044;2022-12-07T03:20:21;9.45;;;3.20;;
48911;SDS011;34722;52.108;5.044;2022-12-07T03:22:48;9.90;;;3.08;;
48911;SDS011;34722;52.108;5.044;2022-12-07T03:25:16;6.32;;;2.42;;
48911;SDS011;34722;52.108;5.044;2022-12-07T03:28:02;9.85;;;2.50;;
48911;SDS011;34722;52.108;5.044;2022-12-07T03:33:18;8.68;;;2.42;;
48911;SDS011;34722;52.108;5.044;2022-12-07T03:38:33;11.43;;;3.55;;
48911;SDS011;34722;52.108;5.044;2022-12-07T03:41:27;10.82;;;2.80;;
48911;SDS011;34722;52.108;5.044;2022-12-07T03:43:54;11.15;;;2.80;;
48911;SDS011;34722;52.108;5.044;2022-12-07T03:49:08;16.85;;;3.22;;
48911;SDS011;34722;52.108;5.044;2022-12-07T03:57:09;6.03;;;2.30;;
48911;SDS011;34722;52.108;5.044;2022-12-07T03:59:36;10.50;;;2.55;;
48911;SDS011;34722;52.108;5.044;2022-12-07T04:02:04;7.20;;;3.15;;
48911;SDS011;34722;52.108;5.044;2022-12-07T04:04:31;10.63;;;2.50;;
48911;SDS011;34722;52.108;5.044;2022-12-07T04:06:57;7.43;;;2.80;;
48911;SDS011;34722;52.108;5.044;2022-12-07T04:09:22;14.73;;;2.85;;
48911;SDS011;34722;52.108;5.044;2022-12-07T04:11:48;5.65;;;2.40;;
48911;SDS011;34722;52.108;5.044;2022-12-07T04:14:14;13.80;;;3.40;;
48911;SDS011;34722;52.108;5.044;2022-12-07T04:19:16;19.75;;;4.30;;
48911;SDS011;34722;52.108;5.044;2022-12-07T04:21:43;5.70;;;2.45;;
48911;SDS011;34722;52.108;5.044;2022-12-07T04:24:08;10.57;;;2.60;;
48911;SDS011;34722;52.108;5.044;2022-12-07T04:26:34;6.75;;;2.65;;
48911;SDS011;34722;52.108;5.044;2022-12-07T04:29:00;6.30;;;2.08;;
48911;SDS011;34722;52.108;5.044;2022-12-07T04:31:26;12.98;;;2.70;;
48911;SDS011;34722;52.108;5.044;2022-12-07T04:33:51;11.40;;;2.40;;
48911;SDS011;34722;52.108;5.044;2022-12-07T04:36:17;15.30;;;2.95;;
48911;SDS011;34722;52.108;5.044;2022-12-07T04:38:44;7.90;;;2.78;;
48911;SDS011;34722;52.108;5.044;2022-12-07T04:41:10;22.17;;;3.03;;
48911;SDS011;34722;52.108;5.044;2022-12-07T04:43:36;8.52;;;2.90;;
48911;SDS011;34722;52.108;5.044;2022-12-07T04:46:02;19.38;;;3.53;;
48911;SDS011;34722;52.108;5.044;2022-12-07T04:48:27;13.98;;;2.70;;
48911;SDS011;34722;52.108;5.044;2022-12-07T04:50:53;10.77;;;2.67;;
48911;SDS011;34722;52.108;5.044;2022-12-07T04:53:19;11.80;;;3.30;;
48911;SDS011;34722;52.108;5.044;2022-12-07T04:55:45;10.82;;;2.42;;
48911;SDS011;34722;52.108;5.044;2022-12-07T04:58:11;18.35;;;5.03;;
48911;SDS011;34722;52.108;5.044;2022-12-07T05:00:38;9.05;;;3.13;;
48911;SDS011;34722;52.108;5.044;2022-12-07T05:03:04;11.60;;;2.42;;
48911;SDS011;34722;52.108;5.044;2022-12-07T05:05:30;16.73;;;2.78;;
48911;SDS011;34722;52.108;5.044;2022-12-07T05:07:55;13.05;;;2.42;;
48911;SDS011;34722;52.108;5.044;2022-12-07T05:10:21;11.10;;;2.35;;
48911;SDS011;34722;52.108;5.044;2022-12-07T05:12:47;6.85;;;2.53;;
48911;SDS011;34722;52.108;5.044;2022-12-07T05:15:13;15.48;;;2.83;;
48911;SDS011;34722;52.108;5.044;2022-12-07T05:17:40;8.70;;;3.05;;
48911;SDS011;34722;52.108;5.044;2022-12-07T05:20:05;14.93;;;4.60;;
48911;SDS011;34722;52.108;5.044;2022-12-07T05:22:32;9.30;;;2.28;;
48911;SDS011;34722;52.108;5.044;2022-12-07T05:24:57;14.43;;;3.35;;
48911;SDS011;34722;52.108;5.044;2022-12-07T05:27:23;12.35;;;2.50;;
48911;SDS011;34722;52.108;5.044;2022-12-07T05:29:49;13.88;;;2.80;;
48911;SDS011;34722;52.108;5.044;2022-12-07T05:32:15;11.65;;;2.63;;
48911;SDS011;34722;52.108;5.044;2022-12-07T05:34:41;15.63;;;3.53;;
48911;SDS011;34722;52.108;5.044;2022-12-07T05:37:07;6.30;;;2.28;;
48911;SDS011;34722;52.108;5.044;2022-12-07T05:39:32;8.32;;;2.40;;
48911;SDS011;34722;52.108;5.044;2022-12-07T05:41:58;9.88;;;2.20;;
48911;SDS011;34722;52.108;5.044;2022-12-07T05:44:43;14.20;;;3.13;;
48911;SDS011;34722;52.108;5.044;2022-12-07T05:47:10;10.57;;;2.85;;
48911;SDS011;34722;52.108;5.044;2022-12-07T05:49:37;11.13;;;2.90;;
48911;SDS011;34722;52.108;5.044;2022-12-07T06:58:57;18.17;;;3.50;;
48911;SDS011;34722;52.108;5.044;2022-12-07T07:01:25;10.98;;;3.22;;
48911;SDS011;34722;52.108;5.044;2022-12-07T07:04:00;17.55;;;4.30;;
48911;SDS011;34722;52.108;5.044;2022-12-07T07:06:38;15.07;;;3.75;;
48911;SDS011;34722;52.108;5.044;2022-12-07T07:09:16;8.32;;;2.67;;
48911;SDS011;34722;52.108;5.044;2022-12-07T07:11:43;21.63;;;5.15;;
48911;SDS011;34722;52.108;5.044;2022-12-07T07:14:22;20.08;;;3.90;;
48911;SDS011;34722;52.108;5.044;2022-12-07T07:16:57;14.63;;;3.42;;
48911;SDS011;34722;52.108;5.044;2022-12-07T07:19:23;16.27;;;3.55;;
48911;SDS011;34722;52.108;5.044;2022-12-07T07:21:49;12.10;;;2.83;;
48911;SDS011;34722;52.108;5.044;2022-12-07T07:24:15;16.67;;;3.47;;
48911;SDS011;34722;52.108;5.044;2022-12-07T07:26:40;14.90;;;3.85;;
48911;SDS011;34722;52.108;5.044;2022-12-07T07:29:12;16.73;;;3.95;;
48911;SDS011;34722;52.108;5.044;2022-12-07T07:31:42;6.53;;;2.95;;
48911;SDS011;34722;52.108;5.044;2022-12-07T07:34:07;17.30;;;3.35;;
48911;SDS011;34722;52.108;5.044;2022-12-07T07:36:33;12.40;;;4.30;;
48911;SDS011;34722;52.108;5.044;2022-12-07T07:39:09;13.85;;;3.30;;
48911;SDS011;34722;52.108;5.044;2022-12-07T07:41:41;18.45;;;3.72;;
48911;SDS011;34722;52.108;5.044;2022-12-07T07:44:07;9.52;;;3.78;;
48911;SDS011;34722;52.108;5.044;2022-12-07T07:46:36;13.85;;;4.03;;
48911;SDS011;34722;52.108;5.044;2022-12-07T07:49:02;14.45;;;4.32;;
48911;SDS011;34722;52.108;5.044;2022-12-07T07:51:28;8.98;;;4.53;;
48911;SDS011;34722;52.108;5.044;2022-12-07T07:53:54;18.50;;;4.88;;
48911;SDS011;34722;52.108;5.044;2022-12-07T07:56:20;13.15;;;4.97;;
48911;SDS011;34722;52.108;5.044;2022-12-07T07:58:51;17.95;;;5.50;;
48911;SDS011;34722;52.108;5.044;2022-12-07T08:01:20;18.50;;;4.97;;
48911;SDS011;34722;52.108;5.044;2022-12-07T08:03:46;16.60;;;5.65;;
48911;SDS011;34722;52.108;5.044;2022-12-07T08:06:18;11.27;;;4.65;;
48911;SDS011;34722;52.108;5.044;2022-12-07T08:08:44;14.95;;;3.92;;
48911;SDS011;34722;52.108;5.044;2022-12-07T08:11:10;14.38;;;5.13;;
48911;SDS011;34722;52.108;5.044;2022-12-07T08:13:38;17.35;;;4.35;;
48911;SDS011;34722;52.108;5.044;2022-12-07T08:16:10;19.83;;;6.53;;
48911;SDS011;34722;52.108;5.044;2022-12-07T08:18:39;24.33;;;5.78;;
48911;SDS011;34722;52.108;5.044;2022-12-07T08:21:23;13.20;;;4.32;;
48911;SDS011;34722;52.108;5.044;2022-12-07T08:23:49;15.05;;;4.25;;
48911;SDS011;34722;52.108;5.044;2022-12-07T08:26:15;19.00;;;6.25;;
48911;SDS011;34722;52.108;5.044;2022-12-07T08:28:41;17.05;;;5.20;;
48911;SDS011;34722;52.108;5.044;2022-12-07T08:31:15;12.45;;;4.13;;
48911;SDS011;34722;52.108;5.044;2022-12-07T08:33:44;11.05;;;3.53;;
48911;SDS011;34722;52.108;5.044;2022-12-07T08:36:11;10.90;;;3.60;;
48911;SDS011;34722;52.108;5.044;2022-12-07T08:38:39;10.07;;;3.10;;
48911;SDS011;34722;52.108;5.044;2022-12-07T08:41:06;14.98;;;3.35;;
48911;SDS011;34722;52.108;5.044;2022-12-07T08:43:32;10.48;;;3.13;;
48911;SDS011;34722;52.108;5.044;2022-12-07T08:48:42;23.45;;;2.85;;
48911;SDS011;34722;52.108;5.044;2022-12-07T08:51:18;11.57;;;3.17;;
48911;SDS011;34722;52.108;5.044;2022-12-07T08:53:45;11.30;;;2.78;;
48911;SDS011;34722;52.108;5.044;2022-12-07T08:56:11;22.92;;;5.80;;
48911;SDS011;34722;52.108;5.044;2022-12-07T08:58:43;16.75;;;2.85;;
48911;SDS011;34722;52.108;5.044;2022-12-07T09:01:16;9.73;;;3.33;;
48911;SDS011;34722;52.108;5.044;2022-12-07T09:03:42;12.25;;;2.53;;
48911;SDS011;34722;52.108;5.044;2022-12-07T09:06:26;12.57;;;3.13;;
48911;SDS011;34722;52.108;5.044;2022-12-07T09:08:53;15.27;;;4.47;;
48911;SDS011;34722;52.108;5.044;2022-12-07T09:11:23;12.88;;;2.80;;
48911;SDS011;34722;52.108;5.044;2022-12-07T09:14:01;10.57;;;3.38;;
48911;SDS011;34722;52.108;5.044;2022-12-07T09:16:26;10.98;;;2.58;;
48911;SDS011;34722;52.108;5.044;2022-12-07T09:18:55;10.38;;;2.75;;
48911;SDS011;34722;52.108;5.044;2022-12-07T09:21:21;11.18;;;2.50;;
48911;SDS011;34722;52.108;5.044;2022-12-07T09:23:49;17.48;;;3.08;;
48911;SDS011;34722;52.108;5.044;2022-12-07T09:26:15;6.47;;;2.67;;
48911;SDS011;34722;52.108;5.044;2022-12-07T09:28:41;10.13;;;2.83;;
48911;SDS011;34722;52.108;5.044;2022-12-07T09:31:07;11.23;;;5.88;;
48911;SDS011;34722;52.108;5.044;2022-12-07T09:33:32;14.82;;;3.70;;
48911;SDS011;34722;52.108;5.044;2022-12-07T09:35:58;15.35;;;4.15;;
48911;SDS011;34722;52.108;5.044;2022-12-07T09:38:24;10.40;;;3.20;;
48911;SDS011;34722;52.108;5.044;2022-12-07T09:40:51;7.50;;;2.92;;
48911;SDS011;34722;52.108;5.044;2022-12-07T09:43:20;11.25;;;2.67;;
48911;SDS011;34722;52.108;5.044;2022-12-07T09:45:50;8.48;;;3.30;;
48911;SDS011;34722;52.108;5.044;2022-12-07T09:48:20;17.83;;;3.20;;
48911;SDS011;34722;52.108;5.044;2022-12-07T09:51:02;11.07;;;3.65;;
48911;SDS011;34722;52.108;5.044;2022-12-07T09:53:36;10.82;;;2.83;;
48911;SDS011;34722;52.108;5.044;2022-12-07T09:56:03;9.50;;;3.40;;
48911;SDS011;34722;52.108;5.044;2022-12-07T09:58:42;10.20;;;3.72;;
48911;SDS011;34722;52.108;5.044;2022-12-07T10:01:13;7.53;;;2.58;;
48911;SDS011;34722;52.108;5.044;2022-12-07T10:03:53;6.25;;;2.38;;
48911;SDS011;34722;52.108;5.044;2022-12-07T10:06:23;11.00;;;2.95;;
48911;SDS011;34722;52.108;5.044;2022-12-07T10:08:49;18.05;;;2.83;;
48911;SDS011;34722;52.108;5.044;2022-12-07T10:11:15;4.93;;;2.17;;
48911;SDS011;34722;52.108;5.044;2022-12-07T10:13:48;7.95;;;2.40;;
48911;SDS011;34722;52.108;5.044;2022-12-07T10:19:17;8.98;;;2.55;;
48911;SDS011;34722;52.108;5.044;2022-12-07T10:22:25;11.40;;;2.65;;
48911;SDS011;34722;52.108;5.044;2022-12-07T10:24:39;8.85;;;2.67;;
48911;SDS011;34722;52.108;5.044;2022-12-07T10:27:22;11.32;;;2.72;;
48911;SDS011;34722;52.108;5.044;2022-12-07T10:29:54;11.45;;;2.50;;
48911;SDS011;34722;52.108;5.044;2022-12-07T10:32:35;9.45;;;2.90;;
48911;SDS011;34722;52.108;5.044;2022-12-07T10:35:21;7.15;;;2.45;;
48911;SDS011;34722;52.108;5.044;2022-12-07T10:37:59;7.40;;;3.10;;
48911;SDS011;34722;52.108;5.044;2022-12-07T10:40:27;9.18;;;3.20;;
48911;SDS011;34722;52.108;5.044;2022-12-07T10:43:17;19.88;;;4.18;;
48911;SDS011;34722;52.108;5.044;2022-12-07T10:45:56;9.32;;;2.20;;
48911;SDS011;34722;52.108;5.044;2022-12-07T10:48:54;9.73;;;2.00;;
48911;SDS011;34722;52.108;5.044;2022-12-07T10:51:51;6.07;;;2.13;;
48911;SDS011;34722;52.108;5.044;2022-12-07T10:55:12;5.65;;;2.05;;
48911;SDS011;34722;52.108;5.044;2022-12-07T11:00:54;11.02;;;2.10;;
48911;SDS011;34722;52.108;5.044;2022-12-07T11:15:31;8.50;;;1.52;;
48911;SDS011;34722;52.108;5.044;2022-12-07T11:18:17;11.68;;;1.95;;
48911;SDS011;34722;52.108;5.044;2022-12-07T11:24:08;5.00;;;1.77;;
48911;SDS011;34722;52.108;5.044;2022-12-07T11:38:00;2.60;;;1.42;;
48911;SDS011;34722;52.108;5.044;2022-12-07T11:40:34;5.05;;;1.92;;
48911;SDS011;34722;52.108;5.044;2022-12-07T11:48:36;13.00;;;1.90;;
48911;SDS011;34722;52.108;5.044;2022-12-07T11:51:33;13.07;;;2.80;;
48911;SDS011;34722;52.108;5.044;2022-12-07T11:54:16;8.50;;;2.25;;
48911;SDS011;34722;52.108;5.044;2022-12-07T11:56:50;6.15;;;1.67;;
48911;SDS011;34722;52.108;5.044;2022-12-07T12:00:15;7.80;;;1.65;;
48911;SDS011;34722;52.108;5.044;2022-12-07T12:02:59;6.65;;;1.48;;
48911;SDS011;34722;52.108;5.044;2022-12-07T12:05:39;3.53;;;1.70;;
48911;SDS011;34722;52.108;5.044;2022-12-07T12:08:21;10.93;;;1.40;;
48911;SDS011;34722;52.108;5.044;2022-12-07T12:17:43;2.85;;;1.35;;
48911;SDS011;34722;52.108;5.044;2022-12-07T12:20:31;7.32;;;1.35;;
48911;SDS011;34722;52.108;5.044;2022-12-07T12:26:28;5.93;;;1.50;;
48911;SDS011;34722;52.108;5.044;2022-12-07T12:40:59;4.38;;;1.42;;
48911;SDS011;34722;52.108;5.044;2022-12-07T12:43:46;5.30;;;1.80;;
48911;SDS011;34722;52.108;5.044;2022-12-07T12:54:24;6.65;;;2.33;;
48911;SDS011;34722;52.108;5.044;2022-12-07T13:02:27;11.13;;;2.00;;
48911;SDS011;34722;52.108;5.044;2022-12-07T13:04:55;6.72;;;1.50;;
48911;SDS011;34722;52.108;5.044;2022-12-07T13:15:40;5.32;;;1.42;;
48911;SDS011;34722;52.108;5.044;2022-12-07T13:18:53;5.55;;;1.00;;
48911;SDS011;34722;52.108;5.044;2022-12-07T13:21:01;13.60;;;1.67;;
48911;SDS011;34722;52.108;5.044;2022-12-07T13:26:19;10.52;;;1.50;;
48911;SDS011;34722;52.108;5.044;2022-12-07T13:28:52;5.70;;;0.88;;
48911;SDS011;34722;52.108;5.044;2022-12-07T13:36:55;3.33;;;0.95;;
48911;SDS011;34722;52.108;5.044;2022-12-07T13:39:27;2.60;;;0.68;;
48911;SDS011;34722;52.108;5.044;2022-12-07T13:41:59;9.07;;;0.80;;
48911;SDS011;34722;52.108;5.044;2022-12-07T13:44:33;4.32;;;1.00;;
48911;SDS011;34722;52.108;5.044;2022-12-07T13:53:12;3.92;;;0.57;;
48911;SDS011;34722;52.108;5.044;2022-12-07T13:55:44;6.40;;;0.88;;
48911;SDS011;34722;52.108;5.044;2022-12-07T13:58:12;2.00;;;0.80;;
48911;SDS011;34722;52.108;5.044;2022-12-07T14:00:39;5.30;;;0.75;;
48911;SDS011;34722;52.108;5.044;2022-12-07T14:05:38;8.40;;;2.25;;
48911;SDS011;34722;52.108;5.044;2022-12-07T14:15:56;5.05;;;1.10;;
48911;SDS011;34722;52.108;5.044;2022-12-07T14:18:36;1.35;;;0.75;;
48911;SDS011;34722;52.108;5.044;2022-12-07T14:21:14;8.23;;;1.63;;
48911;SDS011;34722;52.108;5.044;2022-12-07T14:26:40;6.88;;;1.13;;
48911;SDS011;34722;52.108;5.044;2022-12-07T14:31:51;10.80;;;1.10;;
48911;SDS011;34722;52.108;5.044;2022-12-07T14:34:22;2.38;;;1.20;;
48911;SDS011;34722;52.108;5.044;2022-12-07T14:36:52;6.15;;;1.00;;
48911;SDS011;34722;52.108;5.044;2022-12-07T14:39:18;7.38;;;1.38;;
48911;SDS011;34722;52.108;5.044;2022-12-07T14:41:53;5.85;;;1.38;;
48911;SDS011;34722;52.108;5.044;2022-12-07T14:44:21;7.15;;;1.30;;
48911;SDS011;34722;52.108;5.044;2022-12-07T14:46:49;8.02;;;1.77;;
48911;SDS011;34722;52.108;5.044;2022-12-07T14:49:18;5.07;;;1.90;;
48911;SDS011;34722;52.108;5.044;2022-12-07T14:51:58;4.40;;;1.65;;
48911;SDS011;34722;52.108;5.044;2022-12-07T14:54:33;3.13;;;1.52;;
48911;SDS011;34722;52.108;5.044;2022-12-07T14:57:12;6.35;;;1.98;;
48911;SDS011;34722;52.108;5.044;2022-12-07T14:59:57;3.80;;;1.45;;
48911;SDS011;34722;52.108;5.044;2022-12-07T15:02:24;8.02;;;2.35;;
48911;SDS011;34722;52.108;5.044;2022-12-07T15:05:01;5.00;;;1.70;;
48911;SDS011;34722;52.108;5.044;2022-12-07T15:07:37;10.05;;;3.70;;
48911;SDS011;34722;52.108;5.044;2022-12-07T15:13:08;5.40;;;1.92;;
48911;SDS011;34722;52.108;5.044;2022-12-07T15:16:01;8.50;;;1.98;;
48911;SDS011;34722;52.108;5.044;2022-12-07T15:18:33;7.07;;;2.30;;
48911;SDS011;34722;52.108;5.044;2022-12-07T15:21:00;7.38;;;2.00;;
48911;SDS011;34722;52.108;5.044;2022-12-07T15:23:37;10.00;;;2.22;;
48911;SDS011;34722;52.108;5.044;2022-12-07T15:26:09;9.90;;;3.42;;
48911;SDS011;34722;52.108;5.044;2022-12-07T15:31:28;9.95;;;3.33;;
48911;SDS011;34722;52.108;5.044;2022-12-07T15:33:55;8.07;;;2.03;;
48911;SDS011;34722;52.108;5.044;2022-12-07T15:36:22;8.00;;;2.00;;
48911;SDS011;34722;52.108;5.044;2022-12-07T15:38:50;5.95;;;1.60;;
48911;SDS011;34722;52.108;5.044;2022-12-07T15:41:29;8.57;;;3.65;;
48911;SDS011;34722;52.108;5.044;2022-12-07T15:43:56;6.93;;;2.95;;
48911;SDS011;34722;52.108;5.044;2022-12-07T15:46:41;7.32;;;2.30;;
48911;SDS011;34722;52.108;5.044;2022-12-07T15:49:12;6.97;;;1.40;;
48911;SDS011;34722;52.108;5.044;2022-12-07T15:51:40;1.08;;;0.98;;
48911;SDS011;34722;52.108;5.044;2022-12-07T15:54:18;5.60;;;1.35;;
48911;SDS011;34722;52.108;5.044;2022-12-07T15:56:48;3.45;;;1.80;;
48911;SDS011;34722;52.108;5.044;2022-12-07T15:59:14;3.95;;;1.45;;
48911;SDS011;34722;52.108;5.044;2022-12-07T16:01:40;8.20;;;1.65;;
48911;SDS011;34722;52.108;5.044;2022-12-07T16:04:06;7.35;;;2.20;;
48911;SDS011;34722;52.108;5.044;2022-12-07T16:06:31;7.28;;;3.15;;
48911;SDS011;34722;52.108;5.044;2022-12-07T16:08:57;12.05;;;1.85;;
48911;SDS011;34722;52.108;5.044;2022-12-07T16:11:23;3.92;;;2.20;;
48911;SDS011;34722;52.108;5.044;2022-12-07T16:13:49;6.75;;;3.10;;
48911;SDS011;34722;52.108;5.044;2022-12-07T16:16:16;3.10;;;2.00;;
48911;SDS011;34722;52.108;5.044;2022-12-07T16:18:47;9.10;;;3.47;;
48911;SDS011;34722;52.108;5.044;2022-12-07T16:21:14;4.25;;;2.70;;
48911;SDS011;34722;52.108;5.044;2022-12-07T16:23:41;11.55;;;3.10;;
48911;SDS011;34722;52.108;5.044;2022-12-07T16:26:09;5.40;;;2.97;;
48911;SDS011;34722;52.108;5.044;2022-12-07T16:28:37;10.93;;;3.88;;
48911;SDS011;34722;52.108;5.044;2022-12-07T16:31:04;9.85;;;3.35;;
48911;SDS011;34722;52.108;5.044;2022-12-07T16:33:39;7.25;;;3.15;;
48911;SDS011;34722;52.108;5.044;2022-12-07T16:36:07;8.48;;;4.10;;
48911;SDS011;34722;52.108;5.044;2022-12-07T16:38:34;14.88;;;3.60;;
48911;SDS011;34722;52.108;5.044;2022-12-07T16:41:00;8.35;;;3.40;;
48911;SDS011;34722;52.108;5.044;2022-12-07T16:43:26;10.98;;;4.53;;
48911;SDS011;34722;52.108;5.044;2022-12-07T16:45:53;9.60;;;4.43;;
48911;SDS011;34722;52.108;5.044;2022-12-07T16:48:18;11.05;;;3.10;;
48911;SDS011;34722;52.108;5.044;2022-12-07T16:50:45;6.25;;;3.63;;
48911;SDS011;34722;52.108;5.044;2022-12-07T16:53:12;8.50;;;3.67;;
48911;SDS011;34722;52.108;5.044;2022-12-07T16:55:39;7.00;;;4.40;;
48911;SDS011;34722;52.108;5.044;2022-12-07T16:58:06;9.20;;;4.82;;
48911;SDS011;34722;52.108;5.044;2022-12-07T17:00:32;6.65;;;4.22;;
48911;SDS011;34722;52.108;5.044;2022-12-07T17:02:59;11.18;;;5.03;;
48911;SDS011;34722;52.108;5.044;2022-12-07T17:05:31;10.20;;;5.00;;
48911;SDS011;34722;52.108;5.044;2022-12-07T17:08:15;10.35;;;5.00;;
48911;SDS011;34722;52.108;5.044;2022-12-07T17:11:20;7.00;;;3.33;;
48911;SDS011;34722;52.108;5.044;2022-12-07T17:17:43;8.57;;;3.47;;
48911;SDS011;34722;52.108;5.044;2022-12-07T17:20:12;5.53;;;2.67;;
48911;SDS011;34722;52.108;5.044;2022-12-07T17:22:42;6.35;;;3.58;;
48911;SDS011;34722;52.108;5.044;2022-12-07T17:25:08;7.05;;;2.55;;
48911;SDS011;34722;52.108;5.044;2022-12-07T17:27:38;15.63;;;4.57;;
48911;SDS011;34722;52.108;5.044;2022-12-07T17:30:13;6.25;;;2.92;;
48911;SDS011;34722;52.108;5.044;2022-12-07T17:32:44;9.23;;;6.85;;
48911;SDS011;34722;52.108;5.044;2022-12-07T17:35:10;16.35;;;14.57;;
48911;SDS011;34722;52.108;5.044;2022-12-07T17:37:36;8.55;;;7.10;;
48911;SDS011;34722;52.108;5.044;2022-12-07T17:40:02;12.57;;;4.13;;
48911;SDS011;34722;52.108;5.044;2022-12-07T17:42:31;6.10;;;3.80;;
48911;SDS011;34722;52.108;5.044;2022-12-07T17:45:01;7.05;;;3.60;;
48911;SDS011;34722;52.108;5.044;2022-12-07T17:47:32;7.60;;;3.55;;
48911;SDS011;34722;52.108;5.044;2022-12-07T17:50:18;9.90;;;4.00;;
48911;SDS011;34722;52.108;5.044;2022-12-07T17:53:24;9.15;;;3.83;;
48911;SDS011;34722;52.108;5.044;2022-12-07T17:56:13;9.50;;;4.10;;
48911;SDS011;34722;52.108;5.044;2022-12-07T17:58:42;6.78;;;4.72;;
48911;SDS011;34722;52.108;5.044;2022-12-07T18:01:08;11.90;;;4.80;;
48911;SDS011;34722;52.108;5.044;2022-12-07T18:03:34;9.35;;;5.50;;
48911;SDS011;34722;52.108;5.044;2022-12-07T18:06:00;11.75;;;9.02;;
48911;SDS011;34722;52.108;5.044;2022-12-07T18:08:26;11.20;;;7.55;;
48911;SDS011;34722;52.108;5.044;2022-12-07T18:10:59;12.07;;;8.85;;
48911;SDS011;34722;52.108;5.044;2022-12-07T18:13:25;7.88;;;5.40;;
48911;SDS011;34722;52.108;5.044;2022-12-07T18:16:00;15.10;;;7.80;;
48911;SDS011;34722;52.108;5.044;2022-12-07T18:18:26;13.93;;;8.63;;
48911;SDS011;34722;52.108;5.044;2022-12-07T18:20:52;11.80;;;6.93;;
48911;SDS011;34722;52.108;5.044;2022-12-07T18:23:21;10.20;;;7.68;;
48911;SDS011;34722;52.108;5.044;2022-12-07T18:25:47;9.52;;;7.60;;
48911;SDS011;34722;52.108;5.044;2022-12-07T18:28:15;17.10;;;7.65;;
48911;SDS011;34722;52.108;5.044;2022-12-07T18:30:40;13.93;;;7.97;;
48911;SDS011;34722;52.108;5.044;2022-12-07T18:33:07;12.65;;;8.38;;
48911;SDS011;34722;52.108;5.044;2022-12-07T18:35:33;17.75;;;8.32;;
48911;SDS011;34722;52.108;5.044;2022-12-07T18:40:44;16.60;;;7.53;;
48911;SDS011;34722;52.108;5.044;2022-12-07T18:43:10;14.73;;;7.10;;
48911;SDS011;34722;52.108;5.044;2022-12-07T18:45:41;15.02;;;8.00;;
48911;SDS011;34722;52.108;5.044;2022-12-07T18:48:08;20.77;;;9.02;;
48911;SDS011;34722;52.108;5.044;2022-12-07T18:50:34;18.52;;;9.85;;
48911;SDS011;34722;52.108;5.044;2022-12-07T18:53:04;14.88;;;8.38;;